Time;durP1;ratioP1;P1;durP2;ratioP2;P2;SDS_P1;SDS_P2;PMS_P1;PMS_P2;Temp;Humidity;BMP_temperature;BMP_pressure;BME280_temperature;BME280_humidity;BME280_pressure;Samples;Min_cycle;Max_cycle;Signal;HPM_P1;HPM_P2
2021/08/28 00:01:19;;;;;;;0.10;0.10;;;;;;;20.86;50.63;100473.56;6303793;22;20030;-67
2021/08/28 00:03:45;;;;;;;0.10;0.10;;;;;;;20.79;50.38;100450.22;6304051;22;20023;-69
2021/08/28 00:06:11;;;;;;;0.10;0.10;;;;;;;20.84;50.62;100454.31;6304259;22;20074;-66
2021/08/28 00:08:37;;;;;;;0.10;0.10;;;;;;;20.80;50.63;100456.38;6304047;22;20027;-67
2021/08/28 00:11:03;;;;;;;0.10;0.10;;;;;;;20.81;50.45;100476.63;6304000;22;20031;-67
2021/08/28 00:13:28;;;;;;;0.10;0.10;;;;;;;20.81;50.54;100452.72;6303846;22;20022;-67
2021/08/28 00:15:54;;;;;;;0.10;0.10;;;;;;;20.80;50.54;100459.03;6304188;22;20094;-67
2021/08/28 00:18:20;;;;;;;0.10;0.10;;;;;;;20.79;50.43;100460.84;6303801;22;20482;-67
2021/08/28 00:20:47;;;;;;;0.10;0.10;;;;;;;20.76;50.60;100447.84;6304317;22;20061;-67
2021/08/28 00:23:13;;;;;;;0.15;0.15;;;;;;;20.73;50.37;100466.69;6303719;22;20043;-67
2021/08/28 00:25:39;;;;;;;0.10;0.10;;;;;;;20.74;50.42;100472.84;6303738;22;20529;-68
2021/08/28 00:28:11;;;;;;;0.10;0.10;;;;;;;20.68;50.40;100447.66;6304341;22;20019;-67
2021/08/28 00:30:56;;;;;;;0.10;0.10;;;;;;;20.66;50.50;100452.28;6303462;22;20019;-68
2021/08/28 00:33:22;;;;;;;0.25;0.25;;;;;;;20.63;50.27;100454.34;6276902;22;20097;-68
2021/08/28 00:35:48;;;;;;;0.13;0.13;;;;;;;20.60;50.44;100463.44;6304226;22;20461;-68
2021/08/28 00:38:14;;;;;;;0.10;0.10;;;;;;;20.66;50.47;100470.00;6250905;22;20015;-69
2021/08/28 00:40:40;;;;;;;0.10;0.10;;;;;;;20.57;50.54;100450.44;6276626;22;20022;-68
2021/08/28 00:43:06;;;;;;;0.10;0.10;;;;;;;20.63;50.28;100455.19;6276508;22;20058;-68
2021/08/28 00:45:32;;;;;;;0.10;0.10;;;;;;;20.65;50.32;100463.84;6250880;22;20043;-68
2021/08/28 00:48:10;;;;;;;0.10;0.10;;;;;;;20.65;50.13;100469.16;6303573;22;20011;-68
2021/08/28 00:50:37;;;;;;;0.10;0.10;;;;;;;20.64;50.49;100472.81;6250761;22;20019;-67
2021/08/28 00:53:05;;;;;;;2.08;0.50;;;;;;;20.62;50.31;100469.44;6250921;22;20094;-68
2021/08/28 00:55:31;;;;;;;0.20;0.20;;;;;;;20.67;50.43;100472.53;6303286;22;20015;-67
2021/08/28 00:57:57;;;;;;;0.10;0.10;;;;;;;20.57;50.14;100461.03;6303679;22;20015;-68
2021/08/28 01:00:23;;;;;;;0.10;0.10;;;;;;;20.61;50.30;100473.06;6250693;22;20023;-68
2021/08/28 01:02:50;;;;;;;0.10;0.10;;;;;;;20.66;50.22;100480.63;6276177;22;20457;-68
2021/08/28 01:05:21;;;;;;;0.10;0.10;;;;;;;20.65;50.10;100479.78;6303299;22;20446;-68
2021/08/28 01:08:05;;;;;;;0.10;0.10;;;;;;;20.65;50.15;100474.47;6276866;22;20019;-68
2021/08/28 01:11:07;;;;;;;0.10;0.10;;;;;;;20.64;49.96;100474.63;6276085;22;20080;-68
2021/08/28 01:13:38;;;;;;;0.10;0.10;;;;;;;20.58;50.01;100468.00;6277479;22;20092;-68
2021/08/28 01:16:05;;;;;;;0.20;0.20;;;;;;;20.63;50.08;100486.19;6303467;22;20404;-67
2021/08/28 01:18:32;;;;;;;0.10;0.10;;;;;;;20.61;49.97;100488.16;6276438;22;20084;-67
2021/08/28 01:21:02;;;;;;;0.10;0.10;;;;;;;20.58;50.11;100477.81;6250858;22;20019;-67
2021/08/28 01:23:49;;;;;;;0.10;0.10;;;;;;;20.55;50.10;100491.34;6240101;22;20019;-68
2021/08/28 01:26:59;;;;;;;0.10;0.10;;;;;;;20.55;50.05;100496.66;6275845;22;20512;-68
2021/08/28 01:29:43;;;;;;;0.10;0.10;;;;;;;20.50;50.01;100486.41;6225533;22;20092;-69
2021/08/28 01:32:10;;;;;;;0.25;0.25;;;;;;;20.52;49.94;100489.75;6250472;22;20450;-69
2021/08/28 01:34:36;;;;;;;0.20;0.20;;;;;;;20.54;50.02;100490.50;6303065;22;20026;-69
2021/08/28 01:37:04;;;;;;;0.10;0.10;;;;;;;20.54;49.97;100487.00;6276123;22;20019;-69
2021/08/28 01:40:02;;;;;;;0.10;0.10;;;;;;;20.51;49.84;100485.47;6264894;22;20023;-68
2021/08/28 01:42:35;;;;;;;0.10;0.10;;;;;;;20.49;49.79;100495.34;6275619;22;20019;-67
2021/08/28 01:45:03;;;;;;;0.10;0.10;;;;;;;20.49;49.82;100476.78;6250492;22;20060;-68
2021/08/28 01:47:31;;;;;;;0.10;0.10;;;;;;;20.37;49.75;100461.91;6250738;22;20081;-67
2021/08/28 01:49:58;;;;;;;0.10;0.10;;;;;;;20.47;50.04;100491.16;6250771;22;20015;-65
2021/08/28 01:52:24;;;;;;;0.10;0.10;;;;;;;20.44;49.92;100492.25;6276186;22;20378;-66
2021/08/28 01:54:52;;;;;;;0.10;0.10;;;;;;;20.46;49.75;100457.63;6275947;22;20128;-66
2021/08/28 01:57:19;;;;;;;0.10;0.10;;;;;;;20.36;49.82;100467.34;6275733;22;20094;-66
2021/08/28 02:00:04;;;;;;;0.10;0.10;;;;;;;20.43;49.88;100472.00;6301444;22;20072;-65
2021/08/28 02:02:39;;;;;;;0.10;0.10;;;;;;;20.44;49.86;100486.09;6302780;22;20492;-65
2021/08/28 02:05:05;;;;;;;0.28;0.28;;;;;;;20.40;49.77;100485.53;6302956;22;20026;-65
2021/08/28 02:07:49;;;;;;;0.10;0.10;;;;;;;20.38;49.97;100473.38;6301424;22;20015;-65
2021/08/28 02:10:24;;;;;;;0.10;0.10;;;;;;;20.41;49.78;100481.91;6275984;22;20470;-64
2021/08/28 02:12:56;;;;;;;0.10;0.10;;;;;;;20.41;49.89;100487.22;6301786;22;20015;-65
2021/08/28 02:15:27;;;;;;;0.10;0.10;;;;;;;20.43;49.64;100469.34;6275638;22;20039;-66
2021/08/28 02:18:05;;;;;;;0.10;0.10;;;;;;;20.40;49.49;100480.22;6250450;22;20007;-65
2021/08/28 02:20:53;;;;;;;0.10;0.10;;;;;;;20.34;49.64;100485.22;6275820;22;20023;-65
2021/08/28 02:23:41;;;;;;;0.10;0.10;;;;;;;20.33;49.77;100472.91;6275500;22;20023;-65
2021/08/28 02:26:22;;;;;;;0.10;0.10;;;;;;;20.40;49.68;100484.69;6259961;22;20086;-64
2021/08/28 02:29:02;;;;;;;0.10;0.10;;;;;;;20.43;49.51;100471.16;6251163;22;20019;-64
2021/08/28 02:31:33;;;;;;;0.13;0.13;;;;;;;20.41;49.57;100481.06;6251043;22;20518;-66
2021/08/28 02:34:02;;;;;;;0.10;0.10;;;;;;;20.43;49.60;100479.94;6301637;22;20023;-66
2021/08/28 02:36:28;;;;;;;0.10;0.10;;;;;;;20.45;49.39;100501.88;6250353;22;20518;-67
2021/08/28 02:38:54;;;;;;;0.10;0.10;;;;;;;20.50;49.29;100491.72;6302802;22;20015;-66
2021/08/28 02:41:21;;;;;;;0.10;0.10;;;;;;;20.54;49.23;100498.47;6224975;22;20302;-67
2021/08/28 02:43:48;;;;;;;0.10;0.10;;;;;;;20.55;49.09;100497.47;6250540;22;20026;-67
2021/08/28 02:46:15;;;;;;;0.10;0.10;;;;;;;20.71;48.44;100500.47;6301943;22;20053;-65
2021/08/28 02:48:41;;;;;;;0.10;0.10;;;;;;;20.78;48.28;100492.81;6275703;22;20255;-65
2021/08/28 02:51:14;;;;;;;0.10;0.10;;;;;;;21.00;47.96;100499.75;6251074;22;20073;-65
2021/08/28 02:53:45;;;;;;;0.10;0.10;;;;;;;21.09;47.65;100488.31;6277335;22;20098;-64
2021/08/28 02:56:13;;;;;;;0.28;0.28;;;;;;;21.28;47.51;100496.38;6252224;22;20022;-64
2021/08/28 02:58:39;;;;;;;0.10;0.10;;;;;;;21.44;46.79;100507.31;6277389;22;20022;-64
2021/08/28 03:01:06;;;;;;;0.10;0.10;;;;;;;21.47;46.43;100496.41;6304583;22;20023;-64
2021/08/28 03:03:32;;;;;;;0.10;0.10;;;;;;;21.65;46.22;100497.41;6304655;22;20026;-63
2021/08/28 03:05:59;;;;;;;0.13;0.13;;;;;;;21.60;45.99;100490.81;6227186;22;20026;-65
2021/08/28 03:08:29;;;;;;;;;;;;;;;21.59;46.20;100503.28;6278051;22;20454;-66
2021/08/28 03:10:55;;;;;;;0.10;0.10;;;;;;;21.66;45.91;100508.88;6277303;22;19994;-64
2021/08/28 03:13:22;;;;;;;0.20;0.20;;;;;;;21.75;45.47;100498.25;6252125;22;20019;-66
2021/08/28 03:15:49;;;;;;;0.10;0.10;;;;;;;21.80;45.13;100498.66;6251965;22;20022;-65
2021/08/28 03:18:17;;;;;;;0.10;0.10;;;;;;;21.81;45.16;100496.84;6252705;22;20019;-64
2021/08/28 03:20:46;;;;;;;0.17;0.17;;;;;;;22.06;44.71;100495.47;6251780;22;20015;-64
2021/08/28 03:23:14;;;;;;;0.10;0.10;;;;;;;22.36;43.76;100508.59;6227428;22;20062;-64
2021/08/28 03:25:40;;;;;;;0.20;0.20;;;;;;;22.65;42.96;100489.84;6251521;22;20021;-64
2021/08/28 03:28:06;;;;;;;0.20;0.20;;;;;;;22.97;42.18;100508.16;6277276;22;20021;-64
2021/08/28 03:30:33;;;;;;;0.30;0.30;;;;;;;23.22;41.51;100513.63;6276866;22;20029;-64
2021/08/28 03:32:59;;;;;;;0.20;0.20;;;;;;;23.57;40.81;100512.00;6304577;22;20023;-66
2021/08/28 03:35:25;;;;;;;0.20;0.20;;;;;;;23.91;39.99;100514.84;6304212;22;20371;-64
2021/08/28 03:37:53;;;;;;;0.20;0.20;;;;;;;24.19;39.32;100497.75;6303050;22;20069;-66
2021/08/28 03:40:21;;;;;;;0.20;0.20;;;;;;;24.38;38.42;100518.09;6277118;22;20403;-65
2021/08/28 03:42:47;;;;;;;0.20;0.20;;;;;;;24.57;38.28;100492.03;6226224;22;20019;-65
2021/08/28 03:45:16;;;;;;;0.20;0.20;;;;;;;24.77;37.87;100511.34;6276914;22;20019;-65
2021/08/28 03:47:44;;;;;;;0.20;0.20;;;;;;;24.98;37.34;100524.31;6304120;22;20019;-65
2021/08/28 03:50:12;;;;;;;0.20;0.20;;;;;;;25.07;37.14;100516.16;6276787;22;20015;-65
2021/08/28 03:52:38;;;;;;;0.20;0.20;;;;;;;25.23;36.55;100523.41;6226277;22;20022;-65
2021/08/28 03:55:06;;;;;;;0.10;0.10;;;;;;;25.15;36.43;100497.50;6302542;22;20015;-65
2021/08/28 03:57:33;;;;;;;0.20;0.20;;;;;;;25.03;36.73;100498.75;6302468;22;20015;-64
2021/08/28 03:59:59;;;;;;;0.10;0.10;;;;;;;24.74;37.41;100488.41;6276794;22;20080;-65
2021/08/28 04:02:26;;;;;;;0.10;0.10;;;;;;;24.22;38.16;100487.59;6251210;22;20068;-66
2021/08/28 04:04:54;;;;;;;0.10;0.10;;;;;;;24.01;38.81;100504.94;6276889;22;20050;-64
2021/08/28 04:07:20;;;;;;;0.10;0.10;;;;;;;23.78;39.21;100494.75;6276521;22;20533;-66
2021/08/28 04:09:46;;;;;;;0.10;0.10;;;;;;;23.49;39.69;100520.78;6276500;22;20019;-65
2021/08/28 04:12:13;;;;;;;0.10;0.10;;;;;;;23.35;40.22;100508.78;6276762;22;20042;-64
2021/08/28 04:14:49;;;;;;;0.10;0.10;;;;;;;23.25;40.34;100499.16;6276576;22;20112;-64
2021/08/28 04:17:15;;;;;;;1.13;0.30;;;;;;;23.34;40.22;100501.75;6302672;22;20213;-63
2021/08/28 04:19:41;;;;;;;0.10;0.10;;;;;;;23.64;39.85;100519.25;6302119;22;20047;-62
2021/08/28 04:22:17;;;;;;;0.10;0.10;;;;;;;23.66;39.55;100521.75;6276834;22;20466;-62
2021/08/28 04:25:24;;;;;;;0.20;0.20;;;;;;;23.77;39.32;100527.72;6208833;23;20460;-61
2021/08/28 04:28:17;;;;;;;0.10;0.10;;;;;;;23.89;39.04;100527.50;6204540;23;20021;-62
2021/08/28 04:30:43;;;;;;;0.30;0.30;;;;;;;24.63;37.72;100515.44;6271740;22;20058;-62
2021/08/28 04:33:11;;;;;;;0.20;0.20;;;;;;;25.65;35.70;100510.88;6276634;22;20046;-63
2021/08/28 04:35:37;;;;;;;0.10;0.10;;;;;;;25.48;35.46;100511.78;6303598;22;20015;-67
2021/08/28 04:38:03;;;;;;;0.10;0.10;;;;;;;25.05;36.09;100511.97;6276625;22;20049;-67
2021/08/28 04:40:29;;;;;;;0.10;0.10;;;;;;;24.85;36.74;100509.56;6276079;22;20021;-67
2021/08/28 04:42:56;;;;;;;0.20;0.20;;;;;;;24.54;37.19;100524.34;6276392;22;20011;-67
2021/08/28 04:45:32;;;;;;;0.20;0.20;;;;;;;24.51;37.32;100523.88;6229833;22;20504;-65
2021/08/28 04:48:34;;;;;;;0.30;0.30;;;;;;;25.53;35.70;100522.84;6273815;22;20011;-65
2021/08/28 04:51:08;;;;;;;0.10;0.10;;;;;;;26.06;34.46;100514.41;6276582;22;20076;-65
2021/08/28 04:53:35;;;;;;;0.10;0.10;;;;;;;25.38;35.42;100503.06;6302164;22;20015;-65
2021/08/28 04:56:01;;;;;;;0.10;0.10;;;;;;;25.04;36.17;100516.47;6276440;22;20019;-65
2021/08/28 04:58:27;;;;;;;0.10;0.10;;;;;;;24.77;36.65;100525.50;6303685;22;20061;-65
2021/08/28 05:01:28;;;;;;;0.10;0.10;;;;;;;25.01;36.63;100521.31;6303312;22;20091;-65
2021/08/28 05:04:11;;;;;;;0.10;0.10;;;;;;;25.17;36.38;100505.34;6254661;22;20346;-65
2021/08/28 05:06:38;;;;;;;0.10;0.10;;;;;;;25.03;36.21;100530.84;6250509;22;20019;-65
2021/08/28 05:09:07;;;;;;;0.20;0.20;;;;;;;25.07;36.22;100509.97;6302059;22;20367;-65
2021/08/28 05:11:33;;;;;;;0.20;0.20;;;;;;;25.46;35.67;100519.13;6275835;22;20447;-65
2021/08/28 05:13:59;;;;;;;0.10;0.10;;;;;;;25.88;34.61;100508.38;6303471;22;20023;-65
2021/08/28 05:16:25;;;;;;;0.30;0.30;;;;;;;26.51;33.45;100513.88;6276075;22;20015;-65
2021/08/28 05:18:52;;;;;;;0.20;0.20;;;;;;;27.37;31.65;100506.72;6275944;22;20127;-64
2021/08/28 05:21:21;;;;;;;0.28;0.28;;;;;;;27.93;30.78;100516.28;6275868;22;20025;-66
2021/08/28 05:24:05;;;;;;;0.20;0.20;;;;;;;28.33;30.23;100506.22;6276126;22;20023;-64
2021/08/28 05:26:52;;;;;;;0.20;0.20;;;;;;;28.57;29.46;100505.97;6302116;22;20426;-65
2021/08/28 05:29:18;;;;;;;0.20;0.20;;;;;;;28.86;28.99;100515.94;6276483;22;20362;-68
2021/08/28 05:31:45;;;;;;;0.20;0.20;;;;;;;29.05;28.99;100517.22;6303075;22;20023;-66
2021/08/28 05:34:14;;;;;;;0.20;0.20;;;;;;;29.24;28.32;100512.09;6276097;22;20020;-66
2021/08/28 05:36:59;;;;;;;0.20;0.20;;;;;;;29.19;28.47;100502.94;6302457;22;20110;-66
2021/08/28 05:39:46;;;;;;;0.20;0.20;;;;;;;29.40;28.12;100497.59;6260351;22;20023;-69
2021/08/28 05:42:14;;;;;;;0.20;0.20;;;;;;;29.58;27.65;100511.44;6251457;22;20025;-63
2021/08/28 05:44:41;;;;;;;0.20;0.20;;;;;;;29.23;27.81;100479.97;6275621;22;20358;-64
2021/08/28 05:47:07;;;;;;;0.35;0.35;;;;;;;28.68;28.51;100494.78;6276018;22;20026;-64
2021/08/28 05:49:33;;;;;;;0.20;0.20;;;;;;;28.62;28.73;100530.44;6302781;22;20085;-63
2021/08/28 05:52:05;;;;;;;0.10;0.10;;;;;;;28.93;28.60;100512.31;6251851;22;20023;-64
2021/08/28 05:54:32;;;;;;;1.75;1.27;;;;;;;28.93;28.70;100527.59;6275640;22;20096;-64
2021/08/28 05:56:58;;;;;;;0.20;0.20;;;;;;;29.00;28.39;100500.78;6250419;22;20011;-63
2021/08/28 05:59:24;;;;;;;0.20;0.20;;;;;;;29.35;27.98;100513.50;6301567;22;20405;-64
2021/08/28 06:01:52;;;;;;;0.20;0.20;;;;;;;29.75;27.49;100502.09;6275116;22;20076;-65
2021/08/28 06:04:19;;;;;;;0.20;0.20;;;;;;;30.77;25.82;100486.38;6276131;22;20021;-64
2021/08/28 06:07:04;;;;;;;0.20;0.20;;;;;;;33.79;22.17;100492.53;6303064;22;20015;-64
2021/08/28 06:09:50;;;;;;;0.40;0.40;;;;;;;37.42;17.75;100481.63;6302367;22;20019;-64
2021/08/28 06:12:21;;;;;;;0.30;0.30;;;;;;;39.79;15.24;100454.97;6303106;22;20019;-65
2021/08/28 06:15:08;;;;;;;0.40;0.40;;;;;;;40.92;14.15;100483.66;6302812;22;20473;-64
2021/08/28 06:18:03;;;;;;;0.40;0.40;;;;;;;41.62;13.65;100489.63;6269826;22;20027;-64
2021/08/28 06:20:29;;;;;;;0.30;0.30;;;;;;;42.00;12.88;100448.75;6275702;22;20096;-65
2021/08/28 06:22:55;;;;;;;0.40;0.40;;;;;;;42.24;12.58;100467.44;6275446;22;20015;-64
2021/08/28 06:25:26;;;;;;;0.20;0.20;;;;;;;41.84;13.07;100440.81;6275803;22;20015;-66
2021/08/28 06:27:52;;;;;;;0.30;0.30;;;;;;;41.74;12.77;100469.06;6302611;22;20101;-63
2021/08/28 06:30:20;;;;;;;0.30;0.30;;;;;;;42.07;12.61;100432.84;6276587;22;20019;-63
2021/08/28 06:32:47;;;;;;;0.30;0.30;;;;;;;41.70;13.34;100428.72;6277560;22;20022;-64
2021/08/28 06:35:14;;;;;;;0.30;0.30;;;;;;;39.41;14.70;100431.38;6277663;22;20121;-64
2021/08/28 06:37:44;;;;;;;0.20;0.20;;;;;;;36.19;18.00;100453.94;6277559;22;20094;-64
2021/08/28 06:40:28;;;;;;;0.10;0.10;;;;;;;33.95;20.40;100481.16;6305068;22;20477;-63
2021/08/28 06:43:13;;;;;;;0.10;0.10;;;;;;;32.64;22.26;100476.38;6305076;22;20050;-64
2021/08/28 06:46:11;;;;;;;0.10;0.10;;;;;;;31.90;23.54;100462.25;6220454;22;20023;-66
2021/08/28 06:49:00;;;;;;;0.20;0.20;;;;;;;31.42;23.94;100459.66;6234806;22;20019;-65
2021/08/28 06:51:44;;;;;;;0.10;0.10;;;;;;;31.06;24.42;100426.75;6304370;22;20085;-66
2021/08/28 06:54:29;;;;;;;0.10;0.10;;;;;;;30.78;24.96;100434.94;6282021;22;20011;-66
2021/08/28 06:57:15;;;;;;;0.10;0.10;;;;;;;30.47;25.20;100437.25;6241254;22;20023;-66
2021/08/28 07:00:00;;;;;;;0.10;0.10;;;;;;;30.32;25.75;100455.38;6304573;22;20022;-67
2021/08/28 07:02:45;;;;;;;0.10;0.10;;;;;;;30.11;26.03;100445.47;6304420;22;20085;-66
2021/08/28 07:05:11;;;;;;;0.13;0.13;;;;;;;30.00;26.30;100456.81;6277265;22;20023;-65
2021/08/28 07:07:43;;;;;;;0.10;0.10;;;;;;;29.90;26.33;100473.31;6277252;22;20086;-66
2021/08/28 07:10:10;;;;;;;0.55;0.55;;;;;;;29.75;26.62;100448.25;6304835;22;20023;-66
2021/08/28 07:12:36;;;;;;;0.20;0.20;;;;;;;29.64;26.92;100451.50;6277386;22;20022;-66
2021/08/28 07:15:03;;;;;;;0.10;0.10;;;;;;;29.56;27.04;100432.75;6277483;22;20023;-66
2021/08/28 07:17:46;;;;;;;0.10;0.10;;;;;;;29.49;27.07;100442.63;6277090;22;20022;-66
2021/08/28 07:20:12;;;;;;;0.20;0.20;;;;;;;29.39;27.12;100434.03;6304641;22;20023;-64
2021/08/28 07:22:40;;;;;;;0.10;0.10;;;;;;;29.24;27.61;100442.13;6277561;22;20019;-65
2021/08/28 07:25:12;;;;;;;0.10;0.10;;;;;;;29.07;27.27;100438.00;6277076;22;20458;-65
2021/08/28 07:27:38;;;;;;;0.10;0.10;;;;;;;28.99;27.42;100429.22;6277055;22;20015;-67
2021/08/28 07:30:22;;;;;;;0.10;0.10;;;;;;;28.90;27.91;100410.50;6304505;22;20023;-65
2021/08/28 07:32:48;;;;;;;0.15;0.15;;;;;;;28.80;28.12;100442.22;6277703;22;20020;-68
2021/08/28 07:35:14;;;;;;;0.10;0.10;;;;;;;28.72;28.44;100442.34;6277875;22;20390;-68
2021/08/28 07:37:41;;;;;;;0.10;0.10;;;;;;;28.71;28.26;100453.25;6278200;22;20022;-64
2021/08/28 07:40:07;;;;;;;0.10;0.10;;;;;;;28.58;28.22;100453.88;6279040;22;20018;-66
2021/08/28 07:42:33;;;;;;;0.10;0.10;;;;;;;28.52;28.45;100443.88;6277609;22;20470;-66
2021/08/28 07:44:59;;;;;;;0.10;0.10;;;;;;;28.40;28.76;100418.50;6276818;22;20458;-66
2021/08/28 07:47:30;;;;;;;0.10;0.10;;;;;;;28.32;28.94;100432.00;6277366;22;20056;-66
2021/08/28 07:49:57;;;;;;;0.10;0.10;;;;;;;28.24;29.14;100449.03;6277272;22;20019;-65
2021/08/28 07:52:23;;;;;;;0.10;0.10;;;;;;;28.14;29.09;100418.13;6277077;22;20015;-66
2021/08/28 07:54:49;;;;;;;0.10;0.10;;;;;;;28.03;29.51;100437.31;6250892;22;20127;-66
2021/08/28 07:57:21;;;;;;;0.10;0.10;;;;;;;27.97;29.70;100438.03;6277167;22;20124;-66
2021/08/28 07:59:48;;;;;;;0.10;0.10;;;;;;;27.88;29.94;100445.31;6303694;22;20022;-65
2021/08/28 08:02:14;;;;;;;0.10;0.10;;;;;;;27.77;29.74;100441.25;6276227;22;20027;-64
2021/08/28 08:04:40;;;;;;;0.20;0.20;;;;;;;27.66;30.15;100428.22;6302048;22;20065;-66
2021/08/28 08:07:45;;;;;;;0.10;0.10;;;;;;;27.50;30.19;100430.22;6150031;23;20017;-63
2021/08/28 08:10:30;;;;;;;0.10;0.10;;;;;;;27.37;30.31;100434.28;6150526;23;20021;-66
2021/08/28 08:13:22;;;;;;;0.10;0.10;;;;;;;27.20;30.79;100453.34;6241226;22;20027;-62
2021/08/28 08:16:14;;;;;;;0.10;0.10;;;;;;;27.15;30.50;100415.50;6235980;22;20023;-62
2021/08/28 08:19:05;;;;;;;0.10;0.10;;;;;;;26.89;31.13;100435.41;6276598;22;20015;-62
2021/08/28 08:21:57;;;;;;;0.10;0.10;;;;;;;26.84;31.31;100413.66;6252406;22;20019;-62
2021/08/28 08:24:37;;;;;;;;;;;;;;;26.80;31.37;100411.44;6303004;22;20019;-62
2021/08/28 08:27:21;;;;;;;0.10;0.10;;;;;;;26.78;31.67;100434.91;6303718;22;20095;-62
2021/08/28 08:30:20;;;;;;;0.10;0.10;;;;;;;26.71;31.51;100418.69;6286969;22;20019;-62
2021/08/28 08:32:56;;;;;;;0.10;0.10;;;;;;;26.67;31.94;100408.53;6252810;22;20069;-62
2021/08/28 08:35:27;;;;;;;0.10;0.10;;;;;;;26.63;32.01;100437.50;6303852;22;20043;-63
2021/08/28 08:37:57;;;;;;;0.10;0.10;;;;;;;26.59;32.26;100422.78;6276378;22;20027;-63
2021/08/28 08:40:26;;;;;;;0.10;0.10;;;;;;;26.50;32.22;100413.09;6276301;22;20025;-63
2021/08/28 08:42:55;;;;;;;0.10;0.10;;;;;;;26.51;32.33;100438.03;6303554;22;20015;-62
2021/08/28 08:45:25;;;;;;;0.20;0.20;;;;;;;26.33;32.77;100408.81;6302042;22;20026;-63
2021/08/28 08:47:51;;;;;;;0.10;0.10;;;;;;;26.34;32.80;100427.34;6275970;22;20015;-62
2021/08/28 08:50:19;;;;;;;0.10;0.10;;;;;;;26.23;32.91;100437.59;6303416;22;20332;-62
2021/08/28 08:52:52;;;;;;;0.10;0.10;;;;;;;26.20;33.09;100417.38;6276358;22;20015;-62
2021/08/28 08:55:27;;;;;;;0.10;0.10;;;;;;;26.07;33.23;100441.13;6252913;22;20536;-67
2021/08/28 08:57:53;;;;;;;0.10;0.10;;;;;;;25.97;33.51;100415.53;6275842;22;20015;-68
2021/08/28 09:00:20;;;;;;;0.10;0.10;;;;;;;25.81;33.56;100419.91;6225432;22;20023;-67
2021/08/28 09:03:06;;;;;;;0.10;0.10;;;;;;;25.76;33.75;100403.50;6303209;22;20019;-68
2021/08/28 09:05:35;;;;;;;0.10;0.10;;;;;;;25.73;34.10;100419.91;6276146;22;20015;-67
2021/08/28 09:08:01;;;;;;;0.20;0.20;;;;;;;25.68;34.26;100387.47;6275574;22;20030;-67
2021/08/28 09:10:27;;;;;;;0.13;0.13;;;;;;;25.67;34.33;100417.91;6275987;22;20022;-68
2021/08/28 09:12:53;;;;;;;0.10;0.10;;;;;;;25.63;34.46;100397.81;6303279;22;20470;-67
2021/08/28 09:15:19;;;;;;;0.10;0.10;;;;;;;25.60;34.64;100406.19;6250241;22;20043;-67
2021/08/28 09:17:57;;;;;;;0.10;0.10;;;;;;;25.30;34.86;100390.75;6302916;22;20305;-67
2021/08/28 09:20:24;;;;;;;0.10;0.10;;;;;;;25.36;35.13;100400.78;6302994;22;20019;-68
2021/08/28 09:22:50;;;;;;;0.10;0.10;;;;;;;25.30;35.11;100401.44;6275349;22;20355;-68
2021/08/28 09:25:23;;;;;;;0.10;0.10;;;;;;;25.37;35.25;100397.09;6275983;22;20015;-68
2021/08/28 09:27:50;;;;;;;0.40;0.40;;;;;;;25.39;35.28;100376.41;6275607;22;20019;-68
2021/08/28 09:30:23;;;;;;;0.10;0.10;;;;;;;25.37;35.27;100389.09;6303286;22;20022;-68
2021/08/28 09:32:50;;;;;;;0.10;0.10;;;;;;;25.37;35.28;100397.94;6302923;22;20023;-68
2021/08/28 09:35:16;;;;;;;0.10;0.10;;;;;;;25.41;35.34;100411.81;6302923;22;20019;-68
2021/08/28 09:37:42;;;;;;;0.10;0.10;;;;;;;25.33;35.27;100398.44;6276028;22;20018;-68
2021/08/28 09:40:09;;;;;;;0.10;0.10;;;;;;;25.28;35.57;100376.72;6302751;22;20362;-68
2021/08/28 09:42:36;;;;;;;0.10;0.10;;;;;;;25.29;35.39;100370.38;6275497;22;20072;-68
2021/08/28 09:45:08;;;;;;;1.00;0.32;;;;;;;25.28;35.50;100385.59;6224573;22;20031;-68
2021/08/28 09:47:34;;;;;;;0.10;0.10;;;;;;;25.21;35.49;100346.31;6250990;22;20019;-68
2021/08/28 09:50:00;;;;;;;0.10;0.10;;;;;;;25.09;35.89;100369.00;6303087;22;20461;-68
2021/08/28 09:52:26;;;;;;;0.10;0.10;;;;;;;25.07;35.79;100377.19;6302775;22;20392;-68
2021/08/28 09:54:56;;;;;;;0.10;0.10;;;;;;;25.08;35.98;100384.22;6302432;22;20179;-68
2021/08/28 09:57:28;;;;;;;0.20;0.20;;;;;;;24.97;35.91;100349.78;6302476;22;20110;-68
2021/08/28 09:59:58;;;;;;;0.10;0.10;;;;;;;24.84;35.97;100360.09;6275613;22;20019;-67
2021/08/28 10:02:25;;;;;;;0.10;0.10;;;;;;;24.86;36.08;100374.16;6302690;22;20098;-68
2021/08/28 10:04:57;;;;;;;0.10;0.10;;;;;;;24.92;36.08;100383.34;6302432;22;20065;-68
2021/08/28 10:07:26;;;;;;;0.10;0.10;;;;;;;24.98;36.20;100386.19;6275224;22;20023;-66
2021/08/28 10:09:55;;;;;;;0.10;0.10;;;;;;;25.03;36.20;100386.53;6274983;22;20396;-67
2021/08/28 10:12:21;;;;;;;0.10;0.10;;;;;;;25.09;36.13;100390.41;6302777;22;20463;-68
2021/08/28 10:14:48;;;;;;;0.10;0.10;;;;;;;25.08;35.82;100360.16;6303107;22;20053;-68
2021/08/28 10:17:18;;;;;;;0.40;0.40;;;;;;;25.07;35.87;100381.69;6276163;22;20018;-68
2021/08/28 10:19:47;;;;;;;0.10;0.10;;;;;;;24.99;35.91;100374.50;6250680;22;20428;-69
2021/08/28 10:22:13;;;;;;;0.20;0.20;;;;;;;24.87;36.19;100373.97;6250551;22;20038;-65
2021/08/28 10:24:41;;;;;;;0.10;0.10;;;;;;;24.84;36.06;100374.28;6302884;22;20026;-68
2021/08/28 10:27:07;;;;;;;0.20;0.20;;;;;;;24.91;36.20;100362.94;6275388;22;20458;-68
2021/08/28 10:29:33;;;;;;;0.10;0.10;;;;;;;25.02;36.02;100378.69;6275859;22;20499;-67
2021/08/28 10:31:59;;;;;;;0.10;0.10;;;;;;;25.05;35.96;100356.97;6274963;22;20094;-68
2021/08/28 10:34:25;;;;;;;4.53;0.90;;;;;;;25.10;36.04;100359.97;6275492;22;20042;-69
2021/08/28 10:36:52;;;;;;;0.10;0.10;;;;;;;25.13;36.07;100381.88;6275055;22;20064;-65
2021/08/28 10:39:18;;;;;;;0.10;0.10;;;;;;;25.07;36.28;100403.91;6302745;22;20017;-63
2021/08/28 10:41:44;;;;;;;0.10;0.10;;;;;;;25.00;36.33;100391.38;6302628;22;20515;-64
2021/08/28 10:44:10;;;;;;;0.10;0.10;;;;;;;25.04;36.09;100361.47;6275254;22;20505;-64
2021/08/28 10:46:36;;;;;;;0.10;0.10;;;;;;;25.07;36.27;100365.66;6224915;22;20026;-64
2021/08/28 10:49:10;;;;;;;0.75;0.75;;;;;;;25.11;36.17;100367.00;6251135;22;20495;-64
2021/08/28 10:51:41;;;;;;;0.10;0.10;;;;;;;25.16;36.12;100360.16;6275702;22;20026;-64
2021/08/28 10:54:11;;;;;;;0.05;0.05;;;;;;;25.10;36.00;100368.00;6249752;22;20015;-64
2021/08/28 10:56:46;;;;;;;;;;;;;;;24.97;36.11;100381.03;6276127;22;20011;-63
2021/08/28 10:59:31;;;;;;;0.10;0.10;;;;;;;24.86;36.06;100332.25;6302497;22;19919;-65
2021/08/28 11:02:09;;;;;;;0.10;0.10;;;;;;;24.75;36.20;100361.88;6274714;22;20244;-63
2021/08/28 11:04:45;;;;;;;0.10;0.10;;;;;;;24.72;36.39;100366.72;6302857;22;20015;-63
2021/08/28 11:07:27;;;;;;;0.10;0.10;;;;;;;24.80;36.49;100359.56;6302380;22;20443;-65
2021/08/28 11:10:06;;;;;;;0.10;0.10;;;;;;;24.81;36.47;100369.25;6302626;22;20423;-66
2021/08/28 11:13:04;;;;;;;0.38;0.38;;;;;;;24.71;36.58;100339.16;6302630;22;20016;-63
2021/08/28 11:15:34;;;;;;;0.10;0.10;;;;;;;24.68;36.79;100339.50;6279362;22;20409;-64
2021/08/28 11:18:04;;;;;;;0.10;0.10;;;;;;;24.68;36.93;100363.53;6304128;22;20015;-64
2021/08/28 11:20:41;;;;;;;0.10;0.10;;;;;;;24.72;36.83;100362.22;6304573;22;20015;-63
2021/08/28 11:23:08;;;;;;;0.10;0.10;;;;;;;24.74;36.92;100344.19;6304437;22;20019;-64
2021/08/28 11:25:35;;;;;;;0.10;0.10;;;;;;;24.75;36.83;100367.22;6277548;22;20019;-62
2021/08/28 11:28:04;;;;;;;0.10;0.10;;;;;;;24.72;36.78;100353.38;6303965;22;20019;-63
2021/08/28 11:30:46;;;;;;;0.10;0.10;;;;;;;24.72;36.75;100351.53;6304426;22;20106;-62
2021/08/28 11:33:26;;;;;;;0.15;0.15;;;;;;;24.81;36.82;100350.53;6304339;22;20019;-64
2021/08/28 11:36:01;;;;;;;0.10;0.10;;;;;;;24.84;36.65;100352.91;6304174;22;20518;-65
2021/08/28 11:38:47;;;;;;;0.10;0.10;;;;;;;24.85;36.66;100367.97;6302995;22;20015;-64
2021/08/28 11:41:21;;;;;;;0.10;0.10;;;;;;;24.85;36.78;100357.28;6303912;22;20026;-64
2021/08/28 11:43:48;;;;;;;0.10;0.10;;;;;;;24.95;36.59;100350.94;6279192;22;20026;-65
2021/08/28 11:46:18;;;;;;;0.10;0.10;;;;;;;24.95;36.54;100316.22;6276468;22;20011;-63
2021/08/28 11:48:46;;;;;;;0.10;0.10;;;;;;;24.88;36.66;100321.38;6304341;22;20370;-65